Tiempo atmosférico en la estación meteorológica de Carrión De Los Condes, Palencia (830 m.)



Fecha
DESCASC
Temp. máxima en grados centígrados (hora)
DESCASC
Temp. mínima en grados centígrados (hora)
DESCASC
Temp. media en grados centígrados
DESCASC
Racha de viento máxima en m/sg (hora)
DESCASC
Velocidad máxima media en intervalos de 10 minutos(hora)
DESCASC
Precipitaciones diarias en mm
DESCASC
Precipitaciones de 00:00 a 06:00 en mm
DESCASC
Precipitaciones de 06:00 a 12:00 en mm
DESCASC
Precipitaciones de 12:00 a 18:00 en mm
DESCASC
Precipitaciones de 18:00 a 24:00 en mm
DESCASC
10-07-2020 27.6 (16:50) 13.6 (07:00) 20.6 11.67 (19:20) 5 (20:40) 0 0 0 0 0
09-07-2020 32.1 (16:50) 15.2 (07:10) 23.6 16.11 (18:50) 6.94 (19:10) 1.6 0 0 0 1.6
08-07-2020 29.5 (19:00) 15.1 (05:30) 22.3 17.78 (17:40) 6.39 (17:40) 0.2 0 0 0 0.2
07-07-2020 32.5 (17:50) 10.5 (06:30) 21.5 8.06 (00:40) 3.33 (21:00) 0 0 0 0 0
06-07-2020 26.6 (16:40) 14 (00:00) 20.3 11.94 (19:20) 5 (20:20) 0 0 0 0 0
05-07-2020 31.6 (19:20) 10.5 (06:40) 21.1 7.78 (20:20) 3.61 (23:10) 0 0 0 0 0
04-07-2020 30.1 (17:40) 8.5 (07:10) 19.3 7.78 (21:40) 3.33 (20:20) 0 0 0 0 0
03-07-2020 24.5 (19:10) 8.6 (07:00) 16.6 9.17 (01:00) 3.89 (00:20) 0 0 0 0 0
02-07-2020 26.4 (16:40) 12.3 (00:00) 19.3 14.44 (20:00) 5.83 (19:20) 0 0 0 0 0
01-07-2020 31.4 (17:50) 14.2 (00:00) 22.8 10.28 (17:20) 4.44 (20:10) 0 0 0 0 0
30-06-2020 32.6 (17:40) 11.3 (00:00) 21.9 8.33 (21:20) 3.61 (21:40) 0 0 0 0 0
29-06-2020 28.6 (17:50) 12.9 (00:00) 20.8 10 (20:00) 3.89 (19:50) 0 0 0 0 0
28-06-2020 29.1 (19:30) 10.6 (00:00) 19.9 7.78 (22:00) 3.61 (23:10) 0 0 0 0 0
27-06-2020 25.9 (17:00) 11.3 (00:00) 18.6 9.72 (12:50) 3.61 (12:50) 0 0 0 0 0
26-06-2020 27.1 (16:40) 14 (00:00) 20.6 11.67 (16:20) 4.17 (15:20) 0 0 0 0 0
25-06-2020 27.7 (18:10) 15.9 (00:00) 21.8 12.22 (18:40) 6.39 (18:40) 8 0.8 3 4.2 0
24-06-2020 30.6 (14:20) 14 (00:00) 22.3 11.11 (23:40) 5.83 (23:40) 0.4 0 0 0 0.4
23-06-2020 34 (17:30) 13.2 (00:00) 23.6 9.44 (23:10) 4.17 (23:10) 0.6 0 0 0 0.6
22-06-2020 30 (17:30) 11.7 (00:00) 20.8 9.72 (13:40) 3.06 (12:50) 0 0 0 0 0
21-06-2020 29.1 (18:40) 9.5 (00:00) 19.3 11.39 (21:00) 4.72 (21:00) 0 0 0 0 0
20-06-2020 28.1 (19:00) 8.2 (00:00) 18.2 7.22 (13:40) 2.22 (14:20) 0 0 0 0 0
19-06-2020 26.1 (18:30) 8.1 (00:00) 17.1 6.94 (23:00) 3.06 (00:20) 0 0 0 0 0
18-06-2020 22.7 (18:30) 8.1 (07:10) 15.4 7.78 (20:50) 3.33 (20:50) 0.4 0.2 0 0.2 0
17-06-2020 20.9 (18:10) 9 (00:00) 14.9 8.06 (21:30) 3.06 (20:50) 0.8 0 0 0 0.8
16-06-2020 21.6 (16:30) 8.2 (00:00) 14.9 10.28 (17:10) 5 (18:50) 0 0 0 0 0
15-06-2020 21.5 (17:30) 6.1 (00:00) 13.8 8.33 (15:30) 3.33 (13:20) 0 0 0 0 0

Gráficas

Temp. máximas Temp. mínimas Temp. medias Precipitaciones Rachas de viento máximas Velocidades máximas media en intervalos de 10 minutos

Datos horarios

Fecha y hora oficial Temperatura (ºC) Velocidad del viento (km/h) Dirección del viento Racha (km/h) Dirección de racha Precipitación (mm) Presión (hPa) Tendencia (hPa) Humedad (%)
2020-07-14 23:00:00 14.7 12 Nordeste 33 Nordeste 0 925.8 1.7 55
2020-07-14 22:00:00 16.5 15 Nordeste 40 Nordeste 0 925 1.4 39
2020-07-14 21:00:00 18.9 16 Nordeste 45 Nordeste 0 924.6 0.8 32
2020-07-14 20:00:00 20.9 18 Nordeste 48 Este 0 924.1 0.1 41
2020-07-14 19:00:00 23.3 15 Nordeste 41 Nordeste 0 923.6 -0.7 35
2020-07-14 18:00:00 24.2 15 Nordeste 37 Nordeste 0 923.8 -0.9 33
2020-07-14 17:00:00 25.2 14 Nordeste 36 Nordeste 0 924 -1 30
2020-07-14 16:00:00 25.2 11 Este 29 Nordeste 0 924.3 -1.1 26
2020-07-14 15:00:00 24.9 13 Este 30 Este 0 924.7 -1.2 25
2020-07-14 14:00:00 24.9 11 Este 27 Este 0 925 -1.5 22
2020-07-14 13:00:00 23.6 11 Nordeste 26 Norte 0 925.4 -1.5 17
2020-07-14 12:00:00 22 9 Nordeste 24 Nordeste 0 925.9 -1.2 22
2020-07-14 11:00:00 18.5 10 Norte 23 Nordeste 0 926.5 -0.6 32
2020-07-14 10:00:00 17 10 Nordeste 25 Nordeste 0 926.9 -0.3 43
2020-07-14 09:00:00 14.2 9 Nordeste 18 Nordeste 0 927.1 -0.2 62
2020-07-14 08:00:00 10.7 4 Noroeste 6 Noroeste 0 927.1 -0.4 86
2020-07-14 07:00:00 8.9 0 Calma 6 Sur 0 927.2 -0.6 86
2020-07-14 06:00:00 10.2 3 Norte 17 Nordeste 0 927.3 -0.7 83
2020-07-14 05:00:00 10.7 5 Norte 13 Nordeste 0 927.5 -0.7 78
2020-07-14 04:00:00 11.5 4 Nordeste 13 Nordeste 0 927.8 -0.7 73
2020-07-14 03:00:00 12.2 4 Nordeste 22 Nordeste 0 928 -- 70
2020-07-14 02:00:00 13.1 10 Nordeste 24 Nordeste 0 928.2 -- 66
2020-07-14 01:00:00 12.5 4 Este 17 Nordeste 0 928.5 -- 71
2020-07-14 00:00:00 13.8 4 Nordeste 16 Nordeste 0 928.7 -- 66
2020-07-13 23:00:00 15.8 6 Nordeste 28 Nordeste 0 928.8 -- 56
2020-07-13 22:00:00 18.2 10 Nordeste 32 Este 0 928.4 0.9 45
2020-07-13 21:00:00 20.7 16 Nordeste 39 Nordeste 0 928 0.5 37
2020-07-13 20:00:00 23.3 14 Nordeste 38 Nordeste 0 927.6 -0.3 24
2020-07-13 19:00:00 25.1 12 Nordeste 39 Nordeste 0 927.5 -0.6 28
2020-07-13 18:00:00 25.5 14 Nordeste 36 Este 0 927.5 -1 37
2020-07-13 17:00:00 26.2 12 Nordeste 33 Nordeste 0 927.9 -0.9 36
2020-07-13 16:00:00 25.9 14 Nordeste 34 Nordeste 0 928.1 -1 36
2020-07-13 15:00:00 25.7 14 Nordeste 32 Nordeste 0 928.5 -0.9 36
2020-07-13 14:00:00 24.5 15 Nordeste 43 Nordeste 0 928.8 -0.7 38
2020-07-13 13:00:00 23.8 12 Nordeste 33 Nordeste 0 929.1 -0.5 41
2020-07-13 12:00:00 22.8 13 Nordeste 36 Norte 0 929.4 -0.1 40
2020-07-13 11:00:00 21.3 14 Nordeste 34 Este 0 929.5 0.2 40
2020-07-13 10:00:00 19.2 15 Nordeste 36 Nordeste 0 929.6 0.8 45
2020-07-13 09:00:00 17 15 Nordeste 32 Nordeste 0 929.5 1 52
2020-07-13 08:00:00 14.7 13 Nordeste 31 Nordeste 0 929.3 1 61
2020-07-13 07:00:00 13.1 10 Nordeste 21 Nordeste 0 928.8 -- 76
2020-07-13 06:00:00 13.9 6 Nordeste 28 Nordeste 0 928.5 0.3 82
2020-07-13 05:00:00 14.8 14 Nordeste 34 Nordeste 0 928.3 0.7 83
2020-07-13 04:00:00 14.8 11 Nordeste 24 Nordeste 0 928.2 0.5 87
2020-07-13 03:00:00 15.2 7 Este 20 Nordeste 0 928.2 0.7 84
2020-07-13 02:00:00 15.5 6 Nordeste 19 Nordeste 0 927.6 0.1 84
2020-07-13 01:00:00 16.1 7 Nordeste 27 Nordeste 0 927.7 0.8 82
2020-07-13 00:00:00 16.7 13 Nordeste 36 Nordeste 0 927.5 1.3 81
2020-07-12 23:00:00 17.7 12 Nordeste 33 Norte 0 927.5 2.7 77
2020-07-12 22:00:00 19.2 16 Nordeste 40 Nordeste 0 926.9 2.9 74
2020-07-12 21:00:00 22 12 Este 50 Este 0 926.2 2.5 62
2020-07-12 20:00:00 26.3 15 Este 36 Este 0 924.8 0.8 49
2020-07-12 19:00:00 27.8 16 Nordeste 32 Norte 0 924 -0.4 40
2020-07-12 18:00:00 28.6 11 Norte 29 Norte 0 923.7 -1.2 34
2020-07-12 17:00:00 28.6 11 Norte 28 Este 0 924 -1.2 39
2020-07-12 16:00:00 28.2 6 Nordeste 28 Este 0 924.4 -1 40
2020-07-12 15:00:00 27.2 10 Nordeste 26 Nordeste 0 924.9 -- 41
2020-07-12 14:00:00 26.2 9 Nordeste 27 Nordeste 0 925.2 0.3 49
2020-07-12 13:00:00 24.8 11 Este 31 Este 0 925.4 -- 51
2020-07-12 12:00:00 22.2 13 Este 38 Nordeste 0 925.5 -- 61
2020-07-12 11:00:00 20.1 13 Norte 32 Nordeste 0 924.9 -- 67
2020-07-12 10:00:00 18.5 10 Este 31 Este 0 925.8 1.3 74
2020-07-12 09:00:00 16.9 9 Este 23 Nordeste 0 925.7 -- 81
2020-07-12 08:00:00 15.5 3 Nordeste 16 Este 0 925.3 -- 88
2020-07-12 07:00:00 15.1 4 Nordeste 17 Este 0 924.5 -- 93
2020-07-12 06:00:00 15.5 7 Este 23 Nordeste 0 924 -- 86
2020-07-12 05:00:00 16 9 Nordeste 26 Norte 1.8 924.1 -- 93
2020-07-12 04:00:00 16.4 9 Norte 41 Norte 0.6 925.2 -- 88
2020-07-12 03:00:00 15.9 11 Noroeste 24 Sur 5.8 925.5 -- 88
2020-07-12 02:00:00 16.8 5 Noroeste 34 Nordeste 0 925.4 -- 72
2020-07-12 01:00:00 16.9 10 Nordeste 34 Nordeste 0 924.4 -- 71
2020-07-12 00:00:00 17.5 13 Nordeste 34 Nordeste 0 924.8 -- 70
2020-07-11 23:00:00 18.9 12 Nordeste 35 Nordeste 0 924.6 -- 66
2020-07-11 22:00:00 20.8 14 Nordeste 34 Nordeste 0 924 -- 58
2020-07-11 21:00:00 23.4 13 Nordeste 35 Este 0 923.6 -- 48
2020-07-11 20:00:00 25.4 14 Nordeste 36 Nordeste 0 923.6 -- 42
2020-07-11 19:00:00 27.1 14 Nordeste 35 Este 0 923.7 -0.9 37
2020-07-11 18:00:00 27.7 11 Este 33 Este 0 924.1 -- 36
2020-07-11 17:00:00 27.4 12 Este 33 Nordeste 0 924.3 -- 35
2020-07-11 16:00:00 26.9 14 Este 34 Este 0 924.6 -- 36
2020-07-11 15:00:00 25.5 13 Este 33 Este 0 925.2 -- 40
2020-07-11 14:00:00 24.1 14 Nordeste 35 Nordeste 0 925.6 -- 44
2020-07-11 13:00:00 22.8 14 Nordeste 35 Nordeste 0 925.8 -- 45
2020-07-11 12:00:00 21.5 11 Este 32 Este 0 926 -- 47
2020-07-11 11:00:00 19.3 12 Este 36 Nordeste 0 926.3 -- 53
2020-07-11 10:00:00 16.9 17 Nordeste 40 Nordeste 0 926.3 -- 59
2020-07-11 09:00:00 15.1 13 Este 49 Este 0 926.1 -- 66
2020-07-11 08:00:00 13 10 Nordeste 24 Este 0 926.1 -- 75
2020-07-11 07:00:00 11.9 9 Nordeste 27 Este 0 925.9 -- 79
2020-07-11 06:00:00 12.3 10 Nordeste 27 Nordeste 0 925.8 -- 80
2020-07-11 05:00:00 12.6 10 Nordeste 37 Este 0 925.8 -- 81
2020-07-11 04:00:00 12.8 11 Nordeste 32 Este 0 925.9 -- 81
2020-07-11 03:00:00 12.9 13 Nordeste 29 Este 0 926.1 -- 82
2020-07-11 02:00:00 13.3 10 Nordeste 36 Nordeste 0 926.4 0.6 81
2020-07-11 01:00:00 13.8 14 Nordeste 45 Este 0 926.3 -- 79
2020-07-11 00:00:00 14.6 14 Nordeste 40 Este 0 926.2 -- 77
2020-07-10 23:00:00 15.1 12 Nordeste 40 Nordeste 0 925.8 -- 76
2020-07-10 22:00:00 16.4 13 Este 41 Este 0 924.9 -- 71
2020-07-10 21:00:00 18.8 17 Este 39 Este 0 924.4 -- 61
2020-07-10 20:00:00 21.9 15 Nordeste 42 Nordeste 0 924 -- 51
2020-07-10 19:00:00 24.6 15 Nordeste 37 Este 0 923.9 -- 45
2020-07-10 18:00:00 26.6 12 Este 32 Nordeste 0 923.6 -- 40
2020-07-10 17:00:00 27.1 10 Este 29 Nordeste 0 923.6 -- 38
2020-07-10 16:00:00 27.1 9 Este 26 Este 0 923.8 -- 42
2020-07-10 15:00:00 26 12 Este 30 Este 0 924.3 -- 42
2020-07-10 14:00:00 25.3 9 Este 26 Nordeste 0 924.7 -0.3 49
2020-07-10 13:00:00 23.9 10 Este 30 Nordeste 0 924.9 -- 53
2020-07-10 12:00:00 23 9 Nordeste 27 Este 0 925 -- 57
2020-07-10 11:00:00 21 10 Nordeste 30 Nordeste 0 925 -0.1 63
2020-07-10 10:00:00 18.7 11 Nordeste 29 Nordeste 0 925.1 -- 73
2020-07-10 09:00:00 16.9 8 Nordeste 21 Nordeste 0 924.9 -- 83
2020-07-10 08:00:00 14.7 6 Norte 14 Nordeste 0 925.1 -- 100
2020-07-10 07:00:00 13.6 5 Nordeste 15 Este 0 924.8 -- --
2020-07-10 06:00:00 13.8 5 Este 13 Nordeste 0 924.5 -- --
2020-07-10 05:00:00 14.3 5 Nordeste 12 Norte 0 924.5 -- 97
2020-07-10 04:00:00 14.9 5 Norte 19 Nordeste 0 924.6 -- 88
2020-07-10 03:00:00 15.3 9 Nordeste 20 Este 0 925.3 -- 87
2020-07-10 02:00:00 15.8 5 Nordeste 19 Nordeste 0 925.6 -- 84
2020-07-10 01:00:00 16.6 7 Nordeste 13 Nordeste 0 925.9 -- 78
2020-07-10 00:00:00 16 2 Norte 18 Este 0 925.8 -- 83
2020-07-09 23:00:00 17.5 5 Este 17 Nordeste 0 925.2 -- 73
2020-07-09 22:00:00 18.2 4 Norte 13 Este 0 923.7 -- 77
2020-07-09 21:00:00 20.2 2 Oeste 27 Este 0 925 -- 72
2020-07-09 20:00:00 20.7 13 Sudeste 53 Sudeste 1.6 924.6 -- 70
2020-07-09 19:00:00 25.6 21 Este 58 Sudeste 0 923.7 -- 40
2020-07-09 18:00:00 30.9 9 Nordeste 26 Nordeste 0 922.4 -- 25
2020-07-09 17:00:00 32 6 Sudeste 22 Sudeste 0 922.5 -- 26
2020-07-09 16:00:00 31.2 9 Este 26 Sudeste 0 923.5 -- 28
2020-07-09 15:00:00 30.2 11 Norte 31 Nordeste 0 924.1 -- 29
2020-07-09 14:00:00 30 10 Nordeste 24 Sudeste 0 924.3 -- 30
2020-07-09 13:00:00 28.8 8 Nordeste 22 Sudeste 0 924.4 -- 36
2020-07-09 12:00:00 27.8 6 Este 21 Este 0 924.5 -- 34
2020-07-09 11:00:00 25.8 6 Este 21 Este 0 924.8 -- 43
2020-07-09 10:00:00 23.1 8 Nordeste 23 Nordeste 0 924.8 -- 51
2020-07-09 09:00:00 19.6 8 Nordeste 15 Nordeste 0 924.7 -- 66
2020-07-09 08:00:00 16.6 5 Este 12 Este 0 924.6 -- 75
2020-07-09 07:00:00 15.4 5 Nordeste 16 Nordeste 0 924.3 -- 77
2020-07-09 06:00:00 16 8 Nordeste 15 Nordeste 0 923.7 -- 75
2020-07-09 05:00:00 17.8 7 Nordeste 24 Noroeste 0 923.4 -- 65
2020-07-09 04:00:00 18.5 11 Norte 25 Nordeste 0 922.6 -- 60
2020-07-09 03:00:00 17.8 8 Norte 23 Norte 0 923.4 -- 66
2020-07-09 02:00:00 18.5 8 Norte 18 Sudeste 0 923.8 -- 60
2020-07-09 01:00:00 20.2 6 Este 44 Sudeste 0 923.8 -- 52
2020-07-09 00:00:00 20.4 13 Sudeste 39 Sudeste 0 925.3 -- 52
2020-07-08 23:00:00 21.2 8 Este 23 Este 0 925.8 -- 53
2020-07-08 22:00:00 22.9 8 Nordeste 24 Este 0 923.8 -- 42
2020-07-08 21:00:00 23.6 10 Este 30 Nordeste 0.2 921.9 -- 39
2020-07-08 20:00:00 27.7 13 Nordeste 36 Nordeste 0 920.4 -- 23
2020-07-08 19:00:00 29 14 Nordeste 47 Nordeste 0 920.3 -- 20
2020-07-08 18:00:00 28 13 Este 64 Sudeste 0 921.9 -- 19
2020-07-08 17:00:00 26.7 4 Sudoeste 18 Nordeste 0 921.8 -- 41
2020-07-08 16:00:00 27.9 10 Nordeste 26 Este 0 921.3 -- 31
2020-07-08 15:00:00 28.2 10 Este 26 Nordeste 0 921.9 -- 30
2020-07-08 14:00:00 28.2 8 Nordeste 24 Nordeste 0 922.3 -- 31
2020-07-08 13:00:00 26.9 8 Nordeste 24 Sudeste 0 922.6 -- 34
2020-07-08 12:00:00 25.2 8 Este 23 Sudeste 0 922.9 -- 38
2020-07-08 11:00:00 21.3 8 Nordeste 31 Este 0 922.5 -- 49
2020-07-08 10:00:00 22.9 9 Este 28 Nordeste 0 922.7 -- 39
2020-07-08 09:00:00 20 12 Nordeste 36 Nordeste 0 922.6 -- 43
2020-07-08 08:00:00 16.9 13 Nordeste 27 Nordeste 0 922.2 -- 49
2020-07-08 07:00:00 15.4 10 Nordeste 22 Nordeste 0 922.6 -- 53
2020-07-08 06:00:00 15.1 6 Nordeste 20 Nordeste 0 922.6 -- 57
2020-07-08 05:00:00 15.3 9 Nordeste 21 Nordeste 0 922.5 -- 61
2020-07-08 04:00:00 15.9 9 Nordeste 20 Nordeste 0 922.9 -- 65
2020-07-08 03:00:00 16.3 8 Nordeste 22 Nordeste 0 923.3 -- 72
2020-07-08 02:00:00 17 6 Nordeste 17 Nordeste 0 923.6 -- 70
2020-07-08 01:00:00 18.3 7 Nordeste 22 Nordeste 0 923.9 -- 64
2020-07-08 00:00:00 20.1 9 Nordeste 22 Nordeste 0 923.9 -- 53
2020-07-07 23:00:00 21.9 9 Nordeste 24 Nordeste 0 923.6 -- 44
2020-07-07 22:00:00 24.5 12 Nordeste 26 Nordeste 0 922.7 -- 36
2020-07-07 21:00:00 27.7 12 Nordeste 29 Este 0 922.3 -- 27
2020-07-07 20:00:00 30.1 9 Nordeste 25 Nordeste 0 922.1 -1 23
2020-07-07 19:00:00 31.9 8 Nordeste 24 Este 0 922.2 -1.4 19
2020-07-07 18:00:00 32.2 4 Noroeste 17 Norte 0 922.5 -1.5 21
2020-07-07 17:00:00 32 2 Oeste 15 Sudeste 0 923.1 -1.5 24
2020-07-07 16:00:00 31.2 7 Sudeste 16 Sudeste 0 923.6 -1.4 22
2020-07-07 15:00:00 29.4 5 Nordeste 18 Norte 0 924 -1.2 20
2020-07-07 14:00:00 27.9 8 Este 21 Sudeste 0 924.6 -1.1 17
2020-07-07 13:00:00 25.5 7 Nordeste 21 Sudeste 0 925 -0.9 14
2020-07-07 12:00:00 23.8 7 Este 25 Nordeste 0 925.2 -0.8 21
2020-07-07 11:00:00 20.6 8 Este 23 Este 0 925.7 -0.3 31
2020-07-07 10:00:00 17.4 10 Nordeste 24 Nordeste 0 925.9 -0.1 38
2020-07-07 09:00:00 14.7 7 Nordeste 18 Norte 0 926 -0.1 57
2020-07-07 08:00:00 11.3 4 Nordeste 12 Nordeste 0 926 0 74
2020-07-07 07:00:00 10.5 4 Nordeste 21 Nordeste 0 926 -- 78
2020-07-07 06:00:00 10.8 5 Nordeste 11 Nordeste 0 926.1 -- 78
2020-07-07 05:00:00 11.4 4 Nordeste 18 Nordeste 0 926 -- 77
2020-07-07 04:00:00 11.9 8 Nordeste 19 Nordeste 0 926.4 -- 78
2020-07-07 03:00:00 12.3 6 Nordeste 22 Nordeste 0 926.9 -- 79
2020-07-07 02:00:00 13 9 Nordeste 23 Nordeste 0 927.4 -- 77
2020-07-07 01:00:00 13.5 11 Nordeste 29 Este 0 927.6 -- 77
2020-07-07 00:00:00 14.1 10 Nordeste 27 Nordeste 0 927.9 -- 76
2020-07-06 23:00:00 15.3 12 Nordeste 34 Este 0 928 -- 74
2020-07-06 22:00:00 16.9 13 Nordeste 41 Nordeste 0 927.5 -- 68
2020-07-06 21:00:00 19.3 16 Nordeste 42 Nordeste 0 927.2 -- 62
2020-07-06 20:00:00 22.4 14 Este 43 Nordeste 0 927.1 -- 47
2020-07-06 19:00:00 24.6 10 Este 36 Nordeste 0 927.1 -- 41
2020-07-06 18:00:00 25.6 13 Este 37 Este 0 927.2 -- 38
2020-07-06 17:00:00 26.4 13 Este 38 Nordeste 0 927.3 -- 37
2020-07-06 16:00:00 25.9 13 Este 33 Este 0 927.5 -- 37
2020-07-06 15:00:00 25.6 13 Este 32 Este 0 927.9 -- 38
2020-07-06 14:00:00 25 12 Este 37 Este 0 928.3 -- 43
2020-07-06 13:00:00 23.5 13 Nordeste 35 Nordeste 0 928.4 -- 49
2020-07-06 12:00:00 22.3 13 Nordeste 37 Nordeste 0 928.6 -- 55
2020-07-06 11:00:00 20.8 12 Nordeste 35 Nordeste 0 928.6 -- 61
2020-07-06 10:00:00 19.6 15 Nordeste 34 Nordeste 0 928.5 -- 66
2020-07-06 09:00:00 17.9 12 Nordeste 33 Nordeste 0 928.6 -- 73
2020-07-06 08:00:00 15.7 9 Nordeste 30 Este 0 928.4 -- 80
2020-07-06 07:00:00 14.1 4 Nordeste 13 Nordeste 0 927.9 -- 83
2020-07-06 06:00:00 14.1 6 Nordeste 18 Este 0 927.6 -- 83
2020-07-06 05:00:00 14.9 5 Nordeste 18 Este 0 927.7 -- 81
2020-07-06 04:00:00 15.6 7 Nordeste 16 Nordeste 0 927.8 -- 79
2020-07-06 03:00:00 16.3 5 Nordeste 15 Nordeste 0 928.2 -- 76
2020-07-06 02:00:00 17.2 5 Nordeste 17 Este 0 928.3 -- 69
2020-07-06 01:00:00 18.9 8 Nordeste 23 Este 0 928.2 -- 61
2020-07-06 00:00:00 20.2 10 Nordeste 25 Nordeste 0 928 -- 59
2020-07-05 23:00:00 21.9 12 Nordeste 25 Nordeste 0 927.6 -- 59
2020-07-05 22:00:00 24.4 10 Nordeste 26 Nordeste 0 927 -- 51
2020-07-05 21:00:00 27.2 12 Nordeste 28 Norte 0 926.6 -- 43
2020-07-05 20:00:00 29.5 10 Nordeste 23 Nordeste 0 926.4 -- 31
2020-07-05 19:00:00 31.1 7 Nordeste 27 Nordeste 0 926.5 -- 28
2020-07-05 18:00:00 30 7 Nordeste 19 Nordeste 0 926.9 -- 28
2020-07-05 17:00:00 30.6 9 Norte 22 Norte 0 927.2 -- 27
2020-07-05 16:00:00 30.6 7 Nordeste 23 Este 0 927.6 -- 28
2020-07-05 15:00:00 30.4 7 Sudeste 20 Sudeste 0 927.9 -- 28
2020-07-05 14:00:00 29.2 7 Nordeste 21 Norte 0 928.4 -- 29
2020-07-05 13:00:00 27.8 8 Nordeste 22 Este 0 929 -- 32
2020-07-05 12:00:00 26.3 9 Nordeste 28 Sudeste 0 929.4 -- 33
2020-07-05 11:00:00 24.9 9 Nordeste 22 Nordeste 0 929.5 -- 39
2020-07-05 10:00:00 22.2 8 Nordeste 20 Nordeste 0 929.8 -- 46
2020-07-05 09:00:00 19.2 6 Nordeste 17 Nordeste 0 929.6 -- 54
2020-07-05 08:00:00 15.2 6 Norte 14 Norte 0 929.5 -- 63
2020-07-05 07:00:00 10.7 4 Norte 7 Noroeste 0 929.4 -- 81
2020-07-05 06:00:00 11.2 2 Norte 5 Norte 0 929.4 -- 80
2020-07-05 05:00:00 12.6 0 Calma 18 Nordeste 0 929.6 -- 70
2020-07-05 04:00:00 14.5 5 Norte 17 Nordeste 0 929.7 -- 60
2020-07-05 03:00:00 14.8 3 Norte 13 Nordeste 0 930.3 -- 60
2020-07-05 02:00:00 15.7 5 Nordeste 12 Nordeste 0 930.8 -- 52
2020-07-05 01:00:00 17 5 Nordeste 21 Nordeste 0 930.8 -- 52
2020-07-05 00:00:00 18.4 8 Nordeste 23 Nordeste 0 930.5 -- 52
2020-07-04 23:00:00 19.8 8 Nordeste 20 Este 0 930.1 -- 47
2020-07-04 22:00:00 22.2 8 Nordeste 28 Nordeste 0 929.5 -- 39
2020-07-04 21:00:00 24.7 12 Nordeste 28 Nordeste 0 929 -- 31
2020-07-04 20:00:00 27.6 9 Nordeste 26 Este 0 928.5 -- 25
2020-07-04 19:00:00 29.4 8 Nordeste 23 Norte 0 928.3 -- 21
2020-07-04 18:00:00 29.4 7 Nordeste 20 Sudeste 0 928.7 -- 20
2020-07-04 17:00:00 29.3 6 Este 18 Nordeste 0 928.8 -- 21
2020-07-04 16:00:00 28.3 5 Oeste 17 Norte 0 929.1 -- 20
2020-07-04 15:00:00 27.2 5 Noroeste 16 Sudeste 0 929.5 -- 26
2020-07-04 14:00:00 25.8 4 Noroeste 15 Noroeste 0 930.1 -- 26
2020-07-04 13:00:00 24 5 Norte 15 Norte 0 930.4 -- 30
2020-07-04 12:00:00 22.1 4 Oeste 9 Noroeste 0 930.5 -- 35
2020-07-04 11:00:00 20.4 3 Sudeste 9 Noroeste 0 930.5 -- 40
2020-07-04 10:00:00 16.7 5 Norte 17 Norte 0 930.9 -- 53
2020-07-04 09:00:00 13.4 5 Norte 13 Norte 0 930.6 -- 74
2020-07-04 08:00:00 10.7 6 Norte 10 Noroeste 0 930.5 -- 88
2020-07-04 07:00:00 8.6 2 Norte 11 Norte 0 930 -- 100
2020-07-04 06:00:00 8.9 4 Norte 9 Norte 0 929.9 -- 100
2020-07-04 05:00:00 8.9 3 Norte 17 Nordeste 0 929.7 -- 96
2020-07-04 04:00:00 9.8 3 Norte 16 Nordeste 0 929.8 -- 90
2020-07-04 03:00:00 10.4 3 Nordeste 10 Nordeste 0 929.9 -- 85
2020-07-04 02:00:00 11.6 4 Nordeste 14 Nordeste 0 930.1 -- 81
2020-07-04 01:00:00 12.7 5 Nordeste 17 Este 0 929.9 -- 76
2020-07-04 00:00:00 14.4 8 Nordeste 19 Este 0 929.6 -- 71
2020-07-03 23:00:00 16.3 8 Nordeste 23 Nordeste 0 929.1 -- 65
2020-07-03 22:00:00 19.2 6 Nordeste 18 Este 0 928.2 -- 49
2020-07-03 21:00:00 21.5 5 Este 15 Sudeste 0 927.7 -- 34
2020-07-03 20:00:00 23.8 7 Sudeste 15 Nordeste 0 927.5 -- 30
2020-07-03 19:00:00 24.4 4 Noroeste 17 Nordeste 0 927.5 -- 25
2020-07-03 18:00:00 23.9 4 Nordeste 22 Norte 0 927.7 -- 26
2020-07-03 17:00:00 23.1 8 Norte 23 Nordeste 0 928 -- 29
2020-07-03 16:00:00 22.4 5 Nordeste 30 Noroeste 0 928.3 -- 34
2020-07-03 15:00:00 21.2 9 Nordeste 30 Noroeste 0 928.5 -- 35
2020-07-03 14:00:00 20.5 8 Nordeste 24 Nordeste 0 928.7 -- 38
2020-07-03 13:00:00 19.7 8 Norte 24 Norte 0 928.9 -- 45
2020-07-03 12:00:00 18.6 7 Este 23 Nordeste 0 928.9 -- 49
2020-07-03 11:00:00 16.5 9 Nordeste 26 Norte 0 928.8 -- 55
2020-07-03 10:00:00 14.7 10 Nordeste 26 Este 0 929 -- 64
2020-07-03 09:00:00 12.6 9 Nordeste 28 Nordeste 0 928.9 -- 73
2020-07-03 08:00:00 10.3 6 Nordeste 15 Norte 0 928.5 -- 83
2020-07-03 07:00:00 8.6 6 Nordeste 15 Nordeste 0 928.2 -- 87
2020-07-03 06:00:00 8.7 3 Nordeste 13 Nordeste 0 928.2 -- 87
2020-07-03 05:00:00 9 6 Nordeste 14 Nordeste 0 928.1 -- 86
2020-07-03 04:00:00 9.5 4 Nordeste 15 Nordeste 0 928 -- 85
2020-07-03 03:00:00 10.2 4 Nordeste 17 Nordeste 0 928 -- 83
2020-07-03 02:00:00 11 7 Nordeste 30 Norte 0 927.8 -- 79
2020-07-03 01:00:00 11.6 13 Nordeste 33 Nordeste 0 927.9 -- 76
2020-07-03 00:00:00 12.3 15 Nordeste 39 Nordeste 0 927.5 -- 72
2020-07-02 23:00:00 12.8 14 Nordeste 38 Nordeste 0 927 -- 71
2020-07-02 22:00:00 13.8 12 Nordeste 37 Nordeste 0 926.1 -- 68
2020-07-02 21:00:00 15.7 18 Nordeste 42 Nordeste 0 925.5 -- 64
2020-07-02 20:00:00 18.1 19 Nordeste 52 Nordeste 0 924.5 -- 57
2020-07-02 19:00:00 20.9 18 Nordeste 47 Nordeste 0 923.8 -- 50
2020-07-02 18:00:00 22.5 16 Nordeste 38 Nordeste 0 923.5 -- 48
2020-07-02 17:00:00 25.4 4 Sudoeste 21 Noroeste 0 923.1 -- 31
2020-07-02 16:00:00 24.2 4 Nordeste 15 Sudoeste 0 923.3 -- 33
2020-07-02 15:00:00 24.4 6 Sudoeste 18 Sudoeste 0 923.7 -- 32
2020-07-02 14:00:00 24 4 Oeste 20 Sudoeste 0 923.9 -- 37
2020-07-02 13:00:00 21.8 4 Sudoeste 18 Sudoeste 0 924 -- 50
2020-07-02 12:00:00 21.7 6 Sudeste 15 Sur 0 923.9 -- 55
2020-07-02 11:00:00 19.9 3 Sudeste 12 Sudeste 0 924.1 -- 59
2020-07-02 10:00:00 18.8 0 Calma 14 Sudeste 0 924 -- 64
2020-07-02 09:00:00 16.3 3 Este 12 Sudeste 0 923.7 -- 80
2020-07-02 08:00:00 16.4 4 Este 9 Este 0 923.3 -- 80
2020-07-02 07:00:00 15.2 3 Norte 6 Norte 0 923.1 -- 86
2020-07-02 06:00:00 15.1 2 Nordeste 7 Nordeste 0 922.8 -- 85
2020-07-02 05:00:00 14.9 2 Norte 8 Nordeste 0 922.9 -- 87
2020-07-02 04:00:00 14.4 4 Norte 10 Nordeste 0 923 -- 88
2020-07-02 03:00:00 13.5 4 Norte 10 Norte 0 923.1 -- 88
2020-07-02 02:00:00 13.9 5 Norte 13 Norte 0 923.1 -- 87
2020-07-02 01:00:00 14.6 6 Norte 12 Norte 0 923.3 -- 84
2020-07-02 00:00:00 15.6 3 Norte 14 Este 0 923.4 -- 82
2020-07-01 23:00:00 16.8 6 Este 25 Este 0 922.9 -- 77
2020-07-01 22:00:00 18.6 6 Nordeste 26 Este 0 922.1 -- 70
2020-07-01 21:00:00 21.2 10 Este 36 Nordeste 0 921.3 -- 60
2020-07-01 20:00:00 25.6 16 Nordeste 31 Nordeste 0 920.5 -- 46
2020-07-01 19:00:00 30.4 6 Sudoeste 26 Sur 0 919.5 -- 23
2020-07-01 18:00:00 30.9 10 Sudoeste 37 Sudoeste 0 919.5 -- 18
2020-07-01 17:00:00 30.3 6 Oeste 26 Sudoeste 0 919.8 -- 22
2020-07-01 16:00:00 30.5 5 Sudoeste 31 Sudoeste 0 920.1 -- 26
2020-07-01 15:00:00 30 6 Sudoeste 31 Sudoeste 0 920.3 -- 23
2020-07-01 14:00:00 29.1 8 Sudoeste 31 Sur 0 920.5 -- 27
2020-07-01 13:00:00 27.8 6 Sudoeste 31 Oeste 0 920.5 -- 40
2020-07-01 12:00:00 26.2 4 Este 13 Sudeste 0 920.6 -- 49
2020-07-01 11:00:00 25 3 Este 9 Sur 0 920.7 -- 54
2020-07-01 10:00:00 22.6 4 Este 14 Sudeste 0 920.6 -- 59
2020-07-01 09:00:00 20.4 3 Nordeste 15 Norte 0 920.4 -- 71
2020-07-01 08:00:00 16 0 Calma 4 Norte 0 920.1 -- 93
2020-07-01 07:00:00 14.3 0 Calma 5 Nordeste 0 919.7 -- 93
2020-07-01 06:00:00 15.2 0 Calma 9 Nordeste 0 919.3 -- 86
2020-07-01 05:00:00 15.5 2 Norte 6 Norte 0 919 -- 86
2020-07-01 04:00:00 16.5 0 Calma 9 Noroeste 0 919 -- 82
2020-07-01 03:00:00 18.5 4 Norte 11 Nordeste 0 919.3 -- 75
2020-07-01 02:00:00 20 5 Nordeste 24 Nordeste 0 919.4 -- 69
2020-07-01 01:00:00 20.4 10 Norte 21 Norte 0 919.8 -- 70
2020-07-01 00:00:00 21.4 6 Norte 24 Nordeste 0 919.7 -- 67
2020-06-30 23:00:00 23 7 Norte 27 Nordeste 0 919.5 -- 62
2020-06-30 22:00:00 25.2 10 Nordeste 30 Norte 0 918.8 -- 55
2020-06-30 21:00:00 27.5 7 Noroeste 18 Noroeste 0 918.1 -- 33
2020-06-30 20:00:00 30.5 7 Noroeste 17 Noroeste 0 917.7 -- 26
2020-06-30 19:00:00 32.2 7 Oeste 20 Sudoeste 0 917.7 -- 22
2020-06-30 18:00:00 32.3 4 Oeste 22 Oeste 0 918.2 -- 24
2020-06-30 17:00:00 31.4 4 Nordeste 16 Sudoeste 0 918.9 -- 24
2020-06-30 16:00:00 30.3 8 Sudeste 18 Noroeste 0 919.6 -- 31
2020-06-30 15:00:00 30.2 7 Noroeste 18 Noroeste 0 920.2 -- 29
2020-06-30 14:00:00 29.3 6 Noroeste 15 Nordeste 0 920.8 -- 33
2020-06-30 13:00:00 28.2 5 Norte 17 Nordeste 0 921.2 -- 36
2020-06-30 12:00:00 26.3 6 Este 17 Sudeste 0 921.8 -- 43
2020-06-30 11:00:00 24 7 Este 20 Norte 0 922.1 -- 42
2020-06-30 10:00:00 21.3 7 Nordeste 17 Este 0 922.5 -- 48
2020-06-30 09:00:00 17.9 8 Nordeste 17 Nordeste 0 922.6 -- 49
2020-06-30 08:00:00 14.8 9 Norte 17 Norte 0 922.8 -- 52
2020-06-30 07:00:00 11.4 4 Norte 16 Nordeste 0 922.9 -- 73
2020-06-30 06:00:00 12.2 2 Nordeste 17 Nordeste 0 922.8 -- 67
2020-06-30 05:00:00 13.1 6 Nordeste 16 Nordeste 0 922.7 -- 62
2020-06-30 04:00:00 13.6 5 Nordeste 13 Nordeste 0 923.4 -- 65
2020-06-30 03:00:00 14 4 Nordeste 11 Nordeste 0 923.8 -- 72
2020-06-30 02:00:00 14.9 3 Nordeste 13 Nordeste 0 924 -- 72
2020-06-30 01:00:00 15.8 4 Nordeste 10 Nordeste 0 924.2 -- 67
2020-06-30 00:00:00 17.3 3 Nordeste 19 Nordeste 0 924.1 -- 57
2020-06-29 23:00:00 19.5 10 Nordeste 29 Nordeste 0 923.7 -- 49
2020-06-29 22:00:00 21.3 11 Nordeste 34 Este 0 923.2 -- 58
2020-06-29 21:00:00 24.2 11 Nordeste 32 Nordeste 0 923.1 -- 51
2020-06-29 20:00:00 26.2 12 Nordeste 36 Nordeste 0 922.9 -- 43
2020-06-29 19:00:00 28.2 7 Noroeste 17 Noroeste 0 922.8 -- 38
2020-06-29 18:00:00 28.5 4 Nordeste 17 Nordeste 0 923.3 -- 36
2020-06-29 17:00:00 27.6 7 Norte 20 Noroeste 0 923.8 -- 37
2020-06-29 16:00:00 27.4 9 Sudeste 22 Norte 0 924.3 -- 41
2020-06-29 15:00:00 26 6 Norte 19 Nordeste 0 924.7 -- 46
2020-06-29 14:00:00 24.9 9 Nordeste 20 Sudeste 0 925.3 -- 47
2020-06-29 13:00:00 23.9 6 Nordeste 17 Sudeste 0 925.6 -- 53
2020-06-29 12:00:00 21.6 8 Nordeste 21 Norte 0 925.9 -- 60
2020-06-29 11:00:00 21.4 9 Este 21 Este 0 925.9 -- 62
2020-06-29 10:00:00 19.4 8 Este 22 Este 0 926.1 -- 70
2020-06-29 09:00:00 17.3 9 Nordeste 22 Nordeste 0 926 -- 78
2020-06-29 08:00:00 15.6 10 Nordeste 25 Nordeste 0 925.8 -- 86
2020-06-29 07:00:00 14.4 9 Norte 24 Nordeste 0 925.6 -- 99
2020-06-29 06:00:00 13.5 7 Norte 14 Norte 0 925.5 -- --
2020-06-29 05:00:00 13.4 3 Norte 8 Nordeste 0 925.6 -- 99
2020-06-29 04:00:00 13.9 2 Nordeste 9 Nordeste 0 925.7 -- 88
2020-06-29 03:00:00 14.4 3 Nordeste 9 Norte 0 925.9 -- 88
2020-06-29 02:00:00 15.1 4 Norte 10 Norte 0 926.1 -- 86
2020-06-29 01:00:00 15.9 4 Nordeste 18 Nordeste 0 926.3 -- 82
2020-06-29 00:00:00 16.8 8 Nordeste 26 Nordeste 0 926.1 -- 78
2020-06-28 23:00:00 18.2 10 Nordeste 28 Nordeste 0 925.5 -- 73
2020-06-28 22:00:00 21.1 10 Nordeste 28 Nordeste 0 924.8 -- 63
2020-06-28 21:00:00 25.1 4 Norte 12 Noroeste 0 924.1 -- 47
2020-06-28 20:00:00 27.9 2 Este 22 Sudoeste 0 924 -- 35
2020-06-28 19:00:00 28.9 4 Sudoeste 19 Noroeste 0 924 -- 34
2020-06-28 18:00:00 28.5 3 Sudoeste 24 Sur 0 924.2 -- 33
2020-06-28 17:00:00 28.2 5 Sudoeste 24 Oeste 0 924.5 -- 34
2020-06-28 16:00:00 28.1 5 Sudoeste 27 Sudoeste 0 924.9 -1.1 32
2020-06-28 15:00:00 27 6 Sudoeste 26 Sudoeste 0 925.2 -- 37
2020-06-28 14:00:00 26 6 Sudoeste 23 Sudoeste 0 925.5 -- 36
2020-06-28 13:00:00 25 8 Sur 25 Sudoeste 0 926 -- 42
2020-06-28 12:00:00 23.4 7 Sudoeste 23 Sudoeste 0 926.4 -- 47
2020-06-28 11:00:00 21.1 3 Sudoeste 10 Sur 0 926.4 -- 60
2020-06-28 10:00:00 17.5 4 Sudeste 8 Sur 0 926.5 -- 73
2020-06-28 09:00:00 14.5 0 Calma 5 Norte 0 926.2 -- --
2020-06-28 08:00:00 12 0 Calma 5 Noroeste 0 925.8 -- --
2020-06-28 07:00:00 10.7 0 Calma 13 Este 0 925.5 -- --
2020-06-28 06:00:00 10.9 0 Calma 5 Noroeste 0 925.3 -- --
2020-06-28 05:00:00 11.5 0 Calma -- -- 0 925.2 -- 99
2020-06-28 04:00:00 12.2 0 Calma 6 Noroeste 0 925.4 -- 90
2020-06-28 03:00:00 13.1 0 Calma 5 Sudoeste 0 925.3 -- 87
2020-06-28 02:00:00 14 0 Calma 5 Noroeste 0 925.3 -- 85
2020-06-28 01:00:00 15 0 Calma 4 Noroeste 0 925.3 -- 81
2020-06-28 00:00:00 16.5 0 Calma 6 Norte 0 925.1 -- 76
2020-06-27 23:00:00 18.4 0 Calma 8 Noroeste 0 924.6 -- 68
2020-06-27 22:00:00 21.5 3 Noroeste 20 Noroeste 0 923.8 -- 53
2020-06-27 21:00:00 23.7 3 Sudoeste 16 Norte 0 923.4 -- 46
2020-06-27 20:00:00 24.5 3 Sur 11 Norte 0 923.3 -- 46
2020-06-27 19:00:00 24.8 3 Sudeste 17 Noroeste 0 923.3 -- 47
2020-06-27 18:00:00 25.3 4 Noroeste 17 Sudoeste 0 923.5 -- 43
2020-06-27 17:00:00 25.6 4 Oeste 18 Sudoeste 0 923.6 -- 43
2020-06-27 16:00:00 24.8 5 Sudoeste 25 Sudoeste 0 923.9 -- 43
2020-06-27 15:00:00 23.7 3 Sudoeste 26 Sudoeste 0 924.1 -- 49
2020-06-27 14:00:00 22.8 4 Sudoeste 28 Sudoeste 0 924.2 -- 51
2020-06-27 13:00:00 22.6 9 Sudoeste 35 Sudoeste 0 924.3 -- 53
2020-06-27 12:00:00 21.5 5 Oeste 23 Oeste 0 924.4 -- 56
2020-06-27 11:00:00 20.1 6 Sudoeste 23 Sur 0 924.3 -- 59
2020-06-27 10:00:00 19.1 6 Sudoeste 25 Sudoeste 0 924.1 -- 67
2020-06-27 09:00:00 17 9 Sudoeste 23 Sudoeste 0 923.7 -- 76
2020-06-27 08:00:00 14.1 8 Sudoeste 16 Sudoeste 0 923.4 -- 92
2020-06-27 07:00:00 11.7 4 Sudoeste 12 Oeste 0 923.1 -- --
2020-06-27 06:00:00 11.6 2 Sudoeste 5 Sudoeste 0 923.1 -- --
2020-06-27 05:00:00 11.8 2 Sudoeste 4 Sudoeste 0 922.8 -- 99
2020-06-27 04:00:00 12.6 0 Calma 3 Este 0 922.6 -- 94
2020-06-27 03:00:00 13.2 0 Calma 5 Norte 0 922.5 -- 87
2020-06-27 02:00:00 14.1 3 Norte 5 Este 0 922.5 -- 84
2020-06-27 01:00:00 14.4 0 Calma 3 Norte 0 922.1 -- 81
2020-06-27 00:00:00 15.4 0 Calma 4 Noroeste 0 922.1 -- 77
2020-06-26 23:00:00 17.1 0 Calma 5 Este 0 921.6 -- 67
2020-06-26 22:00:00 19.6 0 Calma 12 Sudoeste 0 920.6 -- 53
2020-06-26 21:00:00 22.8 3 Sudoeste 31 Sur 0 920.3 -- 39
2020-06-26 20:00:00 24.3 10 Sudoeste 31 Sur 0 919.9 -- 31
2020-06-26 19:00:00 25.6 12 Sudoeste 33 Sudoeste 0 919.8 -- 27
2020-06-26 18:00:00 25.4 11 Sudoeste 37 Sudoeste 0 919.8 -- 29
2020-06-26 17:00:00 26.7 14 Sudoeste 42 Sudoeste 0 920 -- 28
2020-06-26 16:00:00 25.4 12 Sudoeste 40 Sudoeste 0 920.5 -- 34
2020-06-26 15:00:00 25.3 15 Sudoeste 34 Sur 0 920.6 -- 44
2020-06-26 14:00:00 24.7 11 Sudoeste 29 Sur 0 920.7 -- 53
2020-06-26 13:00:00 23.8 10 Sudoeste 24 Sudoeste 0 920.8 -- 57
2020-06-26 12:00:00 23.4 5 Sur 20 Sudoeste 0 920.7 -- 61
2020-06-26 11:00:00 21.8 5 Sudoeste 18 Sur 0 921.1 -- 66
2020-06-26 10:00:00 19.9 5 Sudeste 13 Nordeste 0 921.1 -- 70
2020-06-26 09:00:00 17.3 5 Nordeste 15 Nordeste 0 920.9 -- 82
2020-06-26 08:00:00 15.1 6 Nordeste 17 Nordeste 0 920.8 -- 98
2020-06-26 07:00:00 14 6 Nordeste 16 Nordeste 0 920.8 -- 100
2020-06-26 06:00:00 14.3 7 Nordeste 15 Nordeste 0 920.9 -- 98
2020-06-26 05:00:00 14.5 4 Nordeste 14 Nordeste 0 920.7 -- 95
2020-06-26 04:00:00 15 6 Este 18 Nordeste 0 920.8 -- 92
2020-06-26 03:00:00 15.4 5 Nordeste 13 Nordeste 0 921.2 -- 88
2020-06-26 02:00:00 16.2 4 Nordeste 19 Nordeste 0 921.6 -- 86
2020-06-26 01:00:00 17 10 Nordeste 25 Este 0 921.8 -- 85
2020-06-26 00:00:00 17.3 7 Este 23 Nordeste 0 921.9 -- 84
2020-06-25 23:00:00 17.7 7 Nordeste 23 Nordeste 0 921.6 -- 81
2020-06-25 22:00:00 18.9 8 Nordeste 19 Nordeste 0 921.4 -- 79
2020-06-25 21:00:00 20.3 8 Nordeste 21 Nordeste 0 921.1 -- 73
2020-06-25 20:00:00 21.4 6 Norte 27 Este 0 921 -- 73
2020-06-25 19:00:00 24.1 10 Sudeste 44 Este 0 920.4 -- 42
2020-06-25 18:00:00 27.4 6 Este 25 Nordeste 0 920.5 -- 43
2020-06-25 17:00:00 25.9 9 Nordeste 22 Nordeste 0 921.2 -- 52
2020-06-25 16:00:00 24.1 8 Nordeste 18 Este 0 922 -- 65
2020-06-25 15:00:00 22.2 6 Nordeste 14 Nordeste 0 922.5 -- 71
2020-06-25 14:00:00 19.7 4 Este 18 Este 3.6 922.9 -- 84
2020-06-25 13:00:00 20.4 3 Norte 10 Nordeste 0.6 922.9 -- 83
2020-06-25 12:00:00 19.7 6 Noroeste 22 Nordeste 0.8 922.6 -- 78
2020-06-25 11:00:00 21.5 8 Nordeste 22 Nordeste 0 922.3 -- 65
2020-06-25 10:00:00 19.4 6 Nordeste 18 Nordeste 1 922.4 -- 77
2020-06-25 09:00:00 18.1 4 Norte 13 Norte 0 923.1 -- 74
2020-06-25 08:00:00 17.7 9 Norte 33 Nordeste 1.2 922.8 -- 73
2020-06-25 07:00:00 17 10 Norte 33 Norte 0 922.6 -- 76
2020-06-25 06:00:00 16.4 6 Norte 21 Este 0 922.3 -- 79
2020-06-25 05:00:00 16.3 6 Nordeste 15 Nordeste 0.2 922.7 -- 81
2020-06-25 04:00:00 16.4 5 Nordeste 13 Nordeste 0 922.7 -- 79
2020-06-25 03:00:00 16.5 5 Norte 14 Sudeste 0 923.4 -- 78
2020-06-25 02:00:00 17.4 4 Nordeste 19 Norte 0.6 923.9 -- 76
2020-06-25 01:00:00 19.1 5 Norte 24 Norte 0 924.7 -- 64
2020-06-25 00:00:00 19.6 5 Noroeste 40 Norte 0.2 924.4 -- 62
2020-06-24 23:00:00 20.9 8 Noroeste 32 Noroeste 0 925.4 -- 53
2020-06-24 22:00:00 20 4 Noroeste 8 Noroeste 0 924 -- 65
2020-06-24 21:00:00 21.3 0 Calma 8 Norte 0 923.8 -- 68
2020-06-24 20:00:00 22.5 4 Noroeste 22 Sudoeste 0 923.4 -- 57
2020-06-24 19:00:00 24 11 Sudeste 26 Sudeste 0.2 923.4 -- 53
2020-06-24 18:00:00 26.4 9 Norte 23 Nordeste 0 922.9 -- 42
2020-06-24 17:00:00 28.5 3 Norte 14 Noroeste 0 922.9 -- 31
2020-06-24 16:00:00 27.9 6 Norte 35 Sudoeste 0 924.4 -- 40
2020-06-24 15:00:00 27 12 Sudoeste 33 Sudoeste 0 923.8 -- 30
2020-06-24 14:00:00 29.9 8 Sudeste 29 Este 0 922.8 -- 26
2020-06-24 13:00:00 28.1 4 Sur 19 Sudeste 0 923 -- 34
2020-06-24 12:00:00 26.1 4 Este 22 Sudeste 0 922.8 -- 42
2020-06-24 11:00:00 24.2 7 Sudeste 19 Sudeste 0 923.3 -- 49
2020-06-24 10:00:00 22 5 Nordeste 14 Este 0 923.2 -- 52
2020-06-24 09:00:00 20.8 5 Nordeste 12 Nordeste 0 923 -- 58
2020-06-24 08:00:00 17.9 6 Nordeste 14 Nordeste 0 922.7 -- 65
2020-06-24 07:00:00 14.1 3 Norte 7 Norte 0 922.6 -- 85
2020-06-24 06:00:00 15 4 Norte 11 Sur 0 922.6 -- 80
2020-06-24 05:00:00 14.9 2 Este 8 Norte 0 922.4 -- 80
2020-06-24 04:00:00 16.8 3 Norte 19 Este 0 922.7 -- 71
2020-06-24 03:00:00 18.2 5 Nordeste 12 Norte 0 923 -- 65
2020-06-24 02:00:00 20.3 8 Norte 23 Norte 0 923.8 -- 55
2020-06-24 01:00:00 20.3 3 Norte 26 Este 0 923.1 -- 64
2020-06-24 00:00:00 21.7 11 Nordeste 34 Norte 0.6 923.4 -- 54
2020-06-23 23:00:00 24.6 5 Noroeste 23 Norte 0 924.5 -- 46
2020-06-23 22:00:00 25.9 5 Nordeste 14 Norte 0 922.2 -- 40
2020-06-23 21:00:00 27.8 5 Norte 15 Noroeste 0 921.6 -- 29
2020-06-23 20:00:00 31.1 7 Noroeste 16 Noroeste 0 921.3 -- 21
2020-06-23 19:00:00 32.9 6 Noroeste 24 Noroeste 0 921.5 -- 16
2020-06-23 18:00:00 33.9 4 Noroeste 15 Noroeste 0 921.7 -- 14
2020-06-23 17:00:00 33.6 5 Oeste 22 Sudoeste 0 922 -- 16
2020-06-23 16:00:00 33.3 6 Oeste 21 Noroeste 0 922.5 -- 19
2020-06-23 15:00:00 32.3 6 Norte 18 Norte 0 923 -- 19
2020-06-23 14:00:00 31.1 5 Norte 12 Nordeste 0 923.6 -- 23
2020-06-23 13:00:00 30.6 4 Sudeste 10 Este 0 924 -- 23
2020-06-23 12:00:00 28.5 4 Este 17 Nordeste 0 924.2 -- 28
2020-06-23 11:00:00 26 5 Este 23 Este 0 924.7 -- 31
2020-06-23 10:00:00 23 8 Nordeste 22 Nordeste 0 925 -- 37
2020-06-23 09:00:00 20 8 Nordeste 18 Nordeste 0 925.2 -- 42
2020-06-23 08:00:00 16.6 8 Nordeste 23 Norte 0 925.1 -- 54
2020-06-23 07:00:00 14.5 10 Norte 19 Norte 0 925.1 -- 62
2020-06-23 06:00:00 13.6 5 Nordeste 12 Nordeste 0 925.3 -- 75
2020-06-23 05:00:00 14.2 4 Nordeste 13 Nordeste 0 925.6 -- 78
2020-06-23 04:00:00 14.9 6 Nordeste 21 Nordeste 0 925.8 -- 78
2020-06-23 03:00:00 15 5 Nordeste 12 Nordeste 0 926.3 -- 83
2020-06-23 02:00:00 16.4 3 Nordeste 24 Norte 0 926.8 -- 82
2020-06-23 01:00:00 16.6 5 Norte 15 Norte 0 927.1 -- 81
2020-06-23 00:00:00 18.1 6 Nordeste 15 Norte 0 927.2 -- 74
2020-06-22 23:00:00 19.5 6 Nordeste 15 Nordeste 0 927.1 -- 58
2020-06-22 22:00:00 23.1 5 Nordeste 21 Nordeste 0 926.6 -- 42
2020-06-22 21:00:00 26.3 9 Nordeste 29 Nordeste 0 926.3 -- 30
2020-06-22 20:00:00 28.3 9 Nordeste 25 Nordeste 0 926.3 -- 26
2020-06-22 19:00:00 29.6 10 Nordeste 29 Este 0 926.4 -- 24
2020-06-22 18:00:00 29.6 10 Este 30 Nordeste 0 926.8 -- 22
2020-06-22 17:00:00 29.6 10 Nordeste 24 Nordeste 0 927.5 -- 20
2020-06-22 16:00:00 28.9 9 Este 26 Este 0 928.3 -- 25
2020-06-22 15:00:00 27.8 10 Nordeste 28 Nordeste 0 929.2 -- 26
2020-06-22 14:00:00 26.9 9 Este 35 Este 0 929.9 -- 31
2020-06-22 13:00:00 24.9 9 Este 27 Este 0 930.4 -- 33
2020-06-22 12:00:00 22.9 11 Nordeste 30 Este 0 930.8 -- 39
2020-06-22 11:00:00 20.6 11 Nordeste 26 Nordeste 0 931.1 -- 46
2020-06-22 10:00:00 17.9 10 Nordeste 23 Norte 0 931.6 -- 67
2020-06-22 09:00:00 15.5 10 Nordeste 27 Nordeste 0 931.9 -- 79
2020-06-22 08:00:00 13.6 5 Norte 14 Nordeste 0 931.8 -- 89
2020-06-22 07:00:00 12.3 6 Nordeste 16 Nordeste 0 931.6 -- --
2020-06-22 06:00:00 12.1 4 Norte 14 Nordeste 0 931.7 -- 100
2020-06-22 05:00:00 12.5 5 Nordeste 14 Nordeste 0 931.7 -- 99
2020-06-22 04:00:00 12.8 8 Nordeste 16 Nordeste 0 931.9 -- 89
2020-06-22 03:00:00 13.8 8 Nordeste 18 Nordeste 0 932.2 -- 87
2020-06-22 02:00:00 14.1 8 Nordeste 20 Este 0 932.6 -- 85
2020-06-22 01:00:00 14.5 6 Este 20 Nordeste 0 932.5 -- 82
2020-06-22 00:00:00 15.4 8 Nordeste 27 Nordeste 0 932.4 -- 79
2020-06-21 23:00:00 16.5 11 Nordeste 33 Nordeste 0 931.9 -- 74
2020-06-21 22:00:00 18.2 14 Nordeste 35 Norte 0 930.9 -- 66
2020-06-21 21:00:00 21 17 Nordeste 41 Norte 0 930.3 -- 57
2020-06-21 20:00:00 25.5 12 Nordeste 33 Nordeste 0 929.4 -- 40
2020-06-21 19:00:00 28.4 6 Noroeste 14 Noroeste 0 929 -- 25
2020-06-21 18:00:00 28.8 4 Este 18 Sudeste 0 929.3 -- 26
2020-06-21 17:00:00 27.9 5 Nordeste 19 Noroeste 0 929.5 -- 26
2020-06-21 16:00:00 27.7 6 Sudeste 17 Sudeste 0 929.9 -- 29
2020-06-21 15:00:00 26.2 5 Noroeste 19 Noroeste 0 930.3 -- 31
2020-06-21 14:00:00 24.7 9 Norte 20 Norte 0 930.8 -- 34
2020-06-21 13:00:00 24.3 5 Sur 13 Sudoeste 0 930.8 -- 41
2020-06-21 12:00:00 22.4 5 Oeste 14 Sudoeste 0 930.8 -- 47
2020-06-21 11:00:00 20.7 5 Sudoeste 10 Sudoeste 0 930.8 -- 56
2020-06-21 10:00:00 18 4 Nordeste 10 Sudeste 0 930.7 -- 64
2020-06-21 09:00:00 14.7 2 Nordeste 6 Norte 0 930.6 -- 84
2020-06-21 08:00:00 10.7 0 Calma 5 Noroeste 0 930.2 -- --
2020-06-21 07:00:00 9.6 0 Calma 5 Noroeste 0 929.7 -- --
2020-06-21 06:00:00 10 0 Calma 4 Noroeste 0 929.4 -- 98
2020-06-21 05:00:00 10.7 2 Oeste 7 Noroeste 0 929.2 -- 90
2020-06-21 04:00:00 11.9 3 Norte 9 Norte 0 929.2 -- 84
2020-06-21 03:00:00 12.8 4 Nordeste 13 Nordeste 0 929.3 -- 86
2020-06-21 02:00:00 14 3 Nordeste 11 Nordeste 0 929.5 -- 81
2020-06-21 01:00:00 15 5 Nordeste 11 Este 0 929.4 -- 78
2020-06-21 00:00:00 14.3 0 Calma 4 Noroeste 0 928.7 -- 69
2020-06-20 23:00:00 16.6 0 Calma 3 Norte 0 928.2 -- 71
2020-06-20 22:00:00 19.7 0 Calma 7 Sudoeste 0 927.5 -- 57
2020-06-20 21:00:00 22.9 0 Calma 15 Noroeste 0 927.2 -- 37
2020-06-20 20:00:00 26.4 2 Oeste 17 Sudoeste 0 927 -- 24
2020-06-20 19:00:00 28.1 5 Oeste 20 Oeste 0 926.9 -- 23
2020-06-20 18:00:00 27.9 5 Oeste 21 Sur 0 927.2 -- 24
2020-06-20 17:00:00 27.8 8 Sudoeste 22 Sudoeste 0 927.3 -- 22
2020-06-20 16:00:00 26.9 7 Sudoeste 20 Sur 0 927.6 -- 27
2020-06-20 15:00:00 25.4 5 Noroeste 19 Sudoeste 0 927.9 -- 26
2020-06-20 14:00:00 24.5 5 Sudoeste 26 Sudoeste 0 928.3 -- 32
2020-06-20 13:00:00 23 5 Sur 13 Sudeste 0 928.5 -- 34
2020-06-20 12:00:00 21.7 4 Oeste 15 Noroeste 0 928.8 -- 41
2020-06-20 11:00:00 20.1 3 Sudoeste 15 Sudeste 0 928.7 -- 45
2020-06-20 10:00:00 17.7 5 Nordeste 10 Nordeste 0 928.6 -- 52
2020-06-20 09:00:00 14.7 6 Norte 11 Norte 0 928.6 -- 65
2020-06-20 08:00:00 11 5 Norte 8 Norte 0 928.2 -- 82
2020-06-20 07:00:00 8.5 2 Noroeste 10 Nordeste 0 928.2 -- 85
2020-06-20 06:00:00 8.7 4 Norte 9 Norte 0 928 -- 86
2020-06-20 05:00:00 9 4 Norte 9 Norte 0 928 -- 85
2020-06-20 04:00:00 9.6 4 Norte 10 Nordeste 0 927.7 -- 83
2020-06-20 03:00:00 9.3 3 Norte 6 Nordeste 0 928 -- 84
2020-06-20 02:00:00 10.5 4 Norte 6 Norte 0 927.9 -- 82
2020-06-20 01:00:00 12.3 0 Calma 18 Nordeste 0 928 -- 73
2020-06-20 00:00:00 14.4 7 Nordeste 24 Nordeste 0 927.3 -- 62
2020-06-19 23:00:00 16.4 11 Nordeste 25 Nordeste 0 926.4 -- 62
2020-06-19 22:00:00 18.3 0 Calma 4 Este 0 925.1 -- 61
2020-06-19 21:00:00 21.2 0 Calma 12 Sudoeste 0 924.6 -- 41
2020-06-19 20:00:00 24.6 3 Oeste 15 Sudoeste 0 924.3 -- 27
2020-06-19 19:00:00 25.7 5 Sudoeste 23 Noroeste 0 924.1 -- 24
2020-06-19 18:00:00 25.5 4 Oeste 17 Nordeste 0 924.1 -- 24
2020-06-19 17:00:00 25.5 4 Noroeste 17 Sudoeste 0 924.2 -- 22
2020-06-19 16:00:00 24.9 7 Sudoeste 25 Sur 0 924.5 -- 19
2020-06-19 15:00:00 23.9 7 Oeste 24 Sudoeste 0 924.5 -- 25
2020-06-19 14:00:00 22.5 4 Oeste 17 Sudoeste 0 924.8 -- 29
2020-06-19 13:00:00 21.1 6 Oeste 18 Sur 0 925 -- 39
2020-06-19 12:00:00 19.8 4 Noroeste 13 Norte 0 924.9 -- 49
2020-06-19 11:00:00 17.6 3 Sudoeste 13 Sudeste 0 924.8 -- 59
2020-06-19 10:00:00 15.6 4 Este 17 Sudeste 0 924.8 -- 65
2020-06-19 09:00:00 13.2 6 Nordeste 16 Este 0 924.6 -- 70
2020-06-19 08:00:00 10 3 Norte 9 Este 0 924.5 -- 84
2020-06-19 07:00:00 8.1 4 Nordeste 12 Nordeste 0 923.8 -- 88
2020-06-19 06:00:00 8.4 5 Nordeste 15 Nordeste 0 923.5 -- 87
2020-06-19 05:00:00 8.8 6 Nordeste 12 Nordeste 0 923.5 -- 86
2020-06-19 04:00:00 9.2 5 Nordeste 16 Nordeste 0 923.6 -- 85
2020-06-19 03:00:00 9.7 7 Nordeste 17 Nordeste 0 923.7 -- 84
2020-06-19 02:00:00 10.1 6 Nordeste 18 Nordeste 0 923.8 -- 82
2020-06-19 01:00:00 10.8 9 Nordeste 25 Nordeste 0 923.8 -- 81
2020-06-19 00:00:00 11.4 10 Nordeste 25 Este 0 923.4 -- 82
2020-06-18 23:00:00 13 9 Nordeste 22 Nordeste 0 922.8 -- 77
2020-06-18 22:00:00 15 9 Nordeste 23 Nordeste 0 922 -- 69
2020-06-18 21:00:00 18 10 Nordeste 28 Noroeste 0 921.4 -- 57
2020-06-18 20:00:00 21.5 2 Noroeste 17 Noroeste 0 920.7 -- 30
2020-06-18 19:00:00 22.7 3 Oeste 21 Noroeste 0 920.5 -- 28
2020-06-18 18:00:00 22.3 4 Oeste 17 Sudoeste 0 920.7 -- 29
2020-06-18 17:00:00 21.9 5 Oeste 21 Noroeste 0 921 -- 32
2020-06-18 16:00:00 21.3 5 Oeste 13 Noroeste 0 921.3 -- 37
2020-06-18 15:00:00 20.8 4 Sudoeste 16 Norte 0 921.6 -- 37
2020-06-18 14:00:00 19.1 5 Nordeste 18 Norte 0.2 921.8 -- 46
2020-06-18 13:00:00 17.8 3 Sudeste 14 Noroeste 0 922 -- 52
2020-06-18 12:00:00 17.1 8 Norte 18 Noroeste 0 922 -- 60
2020-06-18 11:00:00 15.9 6 Nordeste 21 Sudeste 0 921.9 -- 61
2020-06-18 10:00:00 13.2 9 Este 23 Nordeste 0 922.1 -- 73
2020-06-18 09:00:00 11.6 9 Nordeste 19 Nordeste 0 921.5 -- 81
2020-06-18 08:00:00 9.7 9 Norte 18 Norte 0 921.5 -- 88
2020-06-18 07:00:00 8.2 5 Nordeste 16 Nordeste 0 921.1 -- 99
2020-06-18 06:00:00 9.3 5 Nordeste 14 Norte 0 921.2 -- 93
2020-06-18 05:00:00 9.4 5 Norte 14 Este 0 921.4 -- 98
2020-06-18 04:00:00 9.5 5 Nordeste 17 Nordeste 0 921.6 -- 97
2020-06-18 03:00:00 9.8 7 Nordeste 17 Norte 0 921.8 -- 95
2020-06-18 02:00:00 10.2 6 Norte 19 Norte 0 922.2 -- 94
2020-06-18 01:00:00 10.8 8 Nordeste 18 Nordeste 0.2 922.3 -- 89
2020-06-18 00:00:00 11.1 9 Norte 24 Nordeste 0.8 922.6 -- 86
2020-06-17 23:00:00 12.6 8 Norte 21 Nordeste 0 922.7 -- 74
2020-06-17 22:00:00 13.9 8 Nordeste 29 Nordeste 0 921.7 -- 69
2020-06-17 21:00:00 15.8 10 Nordeste 28 Nordeste 0 921.5 -- 62
2020-06-17 20:00:00 18.4 3 Norte 8 Norte 0 921.2 -- 47
2020-06-17 19:00:00 19.2 3 Noroeste 17 Noroeste 0 921.2 -- 33
2020-06-17 18:00:00 20.1 4 Oeste 16 Noroeste 0 921.6 -- 32
2020-06-17 17:00:00 19.4 4 Noroeste 15 Noroeste 0 922.1 -- 35
2020-06-17 16:00:00 19.3 3 Norte 13 Sudoeste 0 922.4 -- 36
2020-06-17 15:00:00 18.5 3 Sudoeste 12 Sudoeste 0 922.9 -- 44
2020-06-17 14:00:00 17.8 8 Sudoeste 19 Sur 0 923.4 -- 44
2020-06-17 13:00:00 17.1 3 Este 15 Norte 0 923.7 -- 47
2020-06-17 12:00:00 15.9 5 Sur 17 Sudoeste 0 924 -- 57
2020-06-17 11:00:00 14.1 4 Norte 17 Norte 0 924 -- 69
2020-06-17 10:00:00 11.3 3 Sudoeste 6 Sudoeste 0 924.3 -- 84
2020-06-17 09:00:00 10.7 0 Calma 7 Sudoeste 0 924.2 -- 86
2020-06-17 08:00:00 9.8 0 Calma 4 Norte 0 924.2 -- --
2020-06-17 07:00:00 9.1 0 Calma 4 Norte 0 923.9 -- 100
2020-06-17 06:00:00 9.3 2 Noroeste 4 Norte 0 923.7 -- 99
2020-06-17 05:00:00 9.6 0 Calma 14 Este 0 923.8 -- 95
2020-06-17 04:00:00 10.2 2 Nordeste 6 Este 0 924 -- 88
2020-06-17 03:00:00 10.6 3 Oeste 7 Sur 0 924.7 -- 86
2020-06-17 02:00:00 10.7 4 Este 12 Sudeste 0 925.1 -- 85
2020-06-17 01:00:00 11.1 5 Nordeste 23 Este 0 925.5 -- 84
2020-06-17 00:00:00 11.3 5 Este 24 Este 0 925.7 -- 84
2020-06-16 23:00:00 11.6 8 Este 24 Este 0 925.2 -- 82
2020-06-16 22:00:00 12.9 6 Este 28 Este 0 924.7 -- 74
2020-06-16 21:00:00 14.8 8 Este 24 Este 0 924.1 -- 69
2020-06-16 20:00:00 18.4 8 Noroeste 28 Noroeste 0 923.2 -- 50
2020-06-16 19:00:00 19.7 14 Norte 33 Oeste 0 922.8 -- 46
2020-06-16 18:00:00 21 4 Sudoeste 37 Sur 0 922.7 -- 36
2020-06-16 17:00:00 21.1 9 Sudoeste 30 Sudoeste 0 922.8 -- 48
2020-06-16 16:00:00 21 12 Sudoeste 30 Sur 0 923.3 -- 45
2020-06-16 15:00:00 20.2 6 Noroeste 20 Sudoeste 0 923.7 -- 42
2020-06-16 14:00:00 18.7 4 Noroeste 26 Sur 0 924.4 -- 46
2020-06-16 13:00:00 17.8 6 Sudoeste 22 Sudoeste 0 925.1 -- 56
2020-06-16 12:00:00 16.8 3 Sudoeste 21 Sudoeste 0 925.4 -- 56
2020-06-16 11:00:00 16.1 4 Sudoeste 18 Sudoeste 0 925.8 -- 59
2020-06-16 10:00:00 15.3 5 Noroeste 16 Norte 0 925.9 -- 62
2020-06-16 09:00:00 12.2 2 Norte 8 Noroeste 0 925.9 -- 81
2020-06-16 08:00:00 9.4 0 Calma 5 Norte 0 926 -- 100
2020-06-16 07:00:00 8.8 0 Calma 5 Oeste 0 925.9 -- 100
2020-06-16 06:00:00 8.6 2 Norte 14 Nordeste 0 925.7 -- 98
2020-06-16 05:00:00 9 2 Nordeste 10 Nordeste 0 925.9 -- 87
2020-06-16 04:00:00 9.8 3 Norte 8 Norte 0 926.1 -- 87
2020-06-16 03:00:00 11.2 0 Calma 11 Sudeste 0 926.5 -- 82
2020-06-16 02:00:00 12.1 2 Nordeste 6 Sudeste 0 926.8 -- 79
2020-06-16 01:00:00 12.7 3 Nordeste 8 Este 0 927 -- 70
2020-06-16 00:00:00 13 3 Noroeste 10 Noroeste 0 927.1 -- 71
2020-06-15 23:00:00 13.9 0 Calma 6 Norte 0 926.8 -- 68
2020-06-15 22:00:00 15.6 0 Calma 14 Este 0 926.4 -- 59
2020-06-15 21:00:00 17.6 2 Noroeste 13 Oeste 0 926.1 -- 51
2020-06-15 20:00:00 19.2 3 Sudoeste 15 Noroeste 0 925.9 -- 43
2020-06-15 19:00:00 20.4 4 Sudoeste 24 Sudoeste 0 926.1 -- 41
2020-06-15 18:00:00 21.4 6 Sudoeste 24 Sudoeste 0 926.4 -- 40
2020-06-15 17:00:00 20.6 3 Sudoeste 18 Norte 0 926.7 -- 41
2020-06-15 16:00:00 20.6 8 Sudoeste 30 Sur 0 927.1 -- 41
2020-06-15 15:00:00 19.2 6 Sudoeste 19 Sur 0 927.4 -- 45
2020-06-15 14:00:00 18.6 5 Sudoeste 27 Sur 0 927.7 -- 46
2020-06-15 13:00:00 18.2 9 Sudoeste 24 Sudoeste 0 927.8 -- 47
2020-06-15 12:00:00 17.3 5 Sudoeste 21 Sudoeste 0 927.8 -- 52
2020-06-15 11:00:00 16 5 Sudoeste 19 Sudoeste 0 927.9 -- 54
2020-06-15 10:00:00 14.2 4 Sudoeste 12 Sudoeste 0 928 -- 63
2020-06-15 09:00:00 11.9 4 Sudoeste 13 Sudoeste 0 928 -- 77
2020-06-15 08:00:00 8.7 3 Sudoeste 8 Sudoeste 0 927.7 -- 99
2020-06-15 07:00:00 6.1 3 Sudoeste 8 Sudoeste 0 927.4 -- 94
2020-06-15 06:00:00 7.3 2 Sur 15 Norte 0 927 -- 92
2020-06-15 05:00:00 7.7 8 Noroeste 13 Noroeste 0 926.6 -- 98
2020-06-15 04:00:00 7.9 2 Sudoeste 4 Sur 0 927 -- 87
2020-06-15 03:00:00 8.9 0 Calma 5 Sudoeste 0 927.3 -- 83
2020-06-15 02:00:00 10.5 0 Calma 3 Sudoeste 0 927.4 -- 80
2020-06-15 01:00:00 12.8 0 Calma 9 Noroeste 0 927.3 -- 70
2020-06-15 00:00:00 14 2 Sudeste 10 Oeste 0 927.3 -- 61